createdAt,value
2022-10-28T00:00:49.764Z,80.31
2022-10-28T00:03:17.339Z,80.16
2022-10-28T00:05:44.171Z,80.43
2022-10-28T00:08:11.737Z,80.04
2022-10-28T00:10:39.957Z,80.15
2022-10-28T00:13:06.992Z,79.81
2022-10-28T00:15:34.658Z,79.61
2022-10-28T00:18:01.601Z,79.28
2022-10-28T00:20:30.632Z,79.35
2022-10-28T00:22:57.440Z,79.43
2022-10-28T00:25:24.172Z,79.51
2022-10-28T00:27:52.948Z,79.63
2022-10-28T00:30:20.242Z,79.73
2022-10-28T00:32:47.169Z,80.09
2022-10-28T00:35:14.314Z,80.23
2022-10-28T00:37:41.096Z,80.05
2022-10-28T00:40:09.832Z,80.48
2022-10-28T00:42:36.673Z,80.36
2022-10-28T00:45:06.440Z,80.43
2022-10-28T00:47:48.535Z,79.97
2022-10-28T00:50:30.059Z,80.75
2022-10-28T00:53:02.154Z,79.78
2022-10-28T00:55:31.732Z,80.12
2022-10-28T00:58:01.901Z,80.07
2022-10-28T01:00:30.347Z,80.89
2022-10-28T01:02:57.240Z,80.31
2022-10-28T01:05:29.558Z,81.77
2022-10-28T01:08:01.055Z,81.97
2022-10-28T01:10:57.601Z,81.95
2022-10-28T01:13:40.372Z,82.23
2022-10-28T01:16:26.025Z,81.98
2022-10-28T01:19:17.404Z,81.21
2022-10-28T01:22:06.473Z,80.78
2022-10-28T01:25:00.724Z,80.76
2022-10-28T01:28:08.961Z,80.90
2022-10-28T01:31:09.151Z,80.64
2022-10-28T01:33:44.495Z,80.79
2022-10-28T01:36:17.525Z,80.48
2022-10-28T01:38:55.955Z,80.77
2022-10-28T01:41:34.552Z,80.71
2022-10-28T01:44:08.741Z,80.36
2022-10-28T01:46:45.362Z,80.90
2022-10-28T01:49:22.548Z,80.80
2022-10-28T01:51:55.340Z,80.68
2022-10-28T01:54:28.351Z,80.68
2022-10-28T01:56:59.089Z,81.38
2022-10-28T01:59:30.534Z,81.50
2022-10-28T02:01:58.918Z,81.40
2022-10-28T02:04:25.950Z,81.75
2022-10-28T02:06:56.974Z,81.71
2022-10-28T02:09:43.522Z,82.09
2022-10-28T02:12:25.240Z,82.09
2022-10-28T02:15:38.196Z,81.89
2022-10-28T02:18:32.030Z,80.99
2022-10-28T02:21:05.834Z,81.66
2022-10-28T02:23:46.419Z,81.50
2022-10-28T02:26:21.827Z,81.58
2022-10-28T02:28:57.116Z,80.78
2022-10-28T02:31:31.515Z,80.81
2022-10-28T02:34:06.861Z,80.51
2022-10-28T02:36:40.197Z,80.94
2022-10-28T02:39:08.370Z,80.93
2022-10-28T02:41:43.484Z,80.93
2022-10-28T02:44:17.879Z,81.06
2022-10-28T02:46:50.960Z,81.04
2022-10-28T02:49:19.858Z,80.38
2022-10-28T02:51:54.532Z,81.34
2022-10-28T02:54:27.901Z,80.91
2022-10-28T02:57:03.184Z,80.72
2022-10-28T02:59:30.202Z,80.74
2022-10-28T03:01:57.419Z,80.69
2022-10-28T03:04:25.684Z,80.55
2022-10-28T03:06:52.460Z,81.20
2022-10-28T03:09:19.345Z,81.27
2022-10-28T03:11:46.092Z,81.21
2022-10-28T03:14:15.290Z,80.83
2022-10-28T03:16:42.537Z,81.07
2022-10-28T03:21:42.508Z,81.85
2022-10-28T03:24:09.314Z,81.97
2022-10-28T03:26:36.294Z,81.91
2022-10-28T03:29:03.127Z,81.89
2022-10-28T03:31:30.494Z,81.54
2022-10-28T03:33:57.728Z,81.35
2022-10-28T03:36:24.757Z,82.35
2022-10-28T03:38:53.296Z,81.76
2022-10-28T03:41:20.432Z,81.72
2022-10-28T03:43:47.976Z,81.89
2022-10-28T03:46:14.739Z,81.86
2022-10-28T03:48:41.502Z,82.12
2022-10-28T03:51:08.328Z,81.99
2022-10-28T03:53:35.213Z,81.88
2022-10-28T03:56:04.618Z,82.16
2022-10-28T03:58:31.546Z,82.11
2022-10-28T04:00:58.494Z,81.80
2022-10-28T04:03:26.347Z,82.14
2022-10-28T04:05:54.166Z,82.43
2022-10-28T04:08:22.064Z,82.19
2022-10-28T04:10:49.208Z,82.14
2022-10-28T04:13:17.895Z,82.09
2022-10-28T04:15:45.105Z,82.26
2022-10-28T04:18:12.034Z,81.71
2022-10-28T04:20:39.166Z,81.44
2022-10-28T04:23:06.170Z,81.69
2022-10-28T04:25:33.167Z,81.32
2022-10-28T04:27:59.994Z,80.99
2022-10-28T04:30:28.056Z,81.32
2022-10-28T04:32:54.776Z,80.92
2022-10-28T04:35:21.802Z,81.06
2022-10-28T04:37:48.708Z,80.72
2022-10-28T04:40:15.982Z,81.24
2022-10-28T04:42:42.789Z,81.18
2022-10-28T04:45:10.816Z,81.10
2022-10-28T04:47:39.015Z,81.38
2022-10-28T04:50:07.214Z,81.10
2022-10-28T04:52:34.017Z,80.71
2022-10-28T04:55:00.847Z,81.22
2022-10-28T04:57:27.641Z,81.36
2022-10-28T04:59:54.742Z,81.59
2022-10-28T05:02:22.891Z,80.95
2022-10-28T05:04:52.487Z,81.34
2022-10-28T05:07:21.377Z,81.45
2022-10-28T05:09:50.495Z,81.54
2022-10-28T05:12:17.268Z,81.13
2022-10-28T05:14:44.055Z,81.42
2022-10-28T05:17:11.593Z,81.58
2022-10-28T05:19:38.690Z,81.57
2022-10-28T05:22:07.078Z,81.38
2022-10-28T05:24:33.988Z,81.43
2022-10-28T05:27:03.340Z,81.51
2022-10-28T05:29:33.296Z,81.73
2022-10-28T05:32:01.528Z,82.53
2022-10-28T05:34:28.944Z,82.28
2022-10-28T05:37:33.499Z,83.32
2022-10-28T05:40:05.029Z,83.28
2022-10-28T05:42:32.604Z,83.02
2022-10-28T05:45:02.133Z,83.12
2022-10-28T05:47:29.177Z,84.96
2022-10-28T05:49:55.910Z,83.24
2022-10-28T05:52:24.181Z,82.86
2022-10-28T05:54:52.468Z,82.96
2022-10-28T05:57:19.295Z,82.82
2022-10-28T05:59:46.304Z,82.75
2022-10-28T06:02:15.075Z,82.76
2022-10-28T06:04:42.276Z,82.02
2022-10-28T06:07:09.577Z,81.72
2022-10-28T06:09:36.495Z,82.24
2022-10-28T06:12:05.072Z,81.84
2022-10-28T06:14:32.426Z,82.80
2022-10-28T06:16:59.262Z,83.95
2022-10-28T06:19:26.171Z,84.11
2022-10-28T06:21:53.000Z,83.84
2022-10-28T06:24:20.192Z,83.25
2022-10-28T06:26:47.013Z,82.91
2022-10-28T06:29:15.434Z,82.70
2022-10-28T06:31:42.585Z,82.64
2022-10-28T06:34:11.752Z,82.61
2022-10-28T06:36:38.882Z,82.68
2022-10-28T06:39:05.944Z,81.73
2022-10-28T06:41:33.180Z,81.88
2022-10-28T06:44:00.784Z,82.30
2022-10-28T06:46:29.442Z,81.26
2022-10-28T06:48:57.969Z,80.51
2022-10-28T06:51:25.217Z,80.70
2022-10-28T06:53:52.768Z,80.51
2022-10-28T06:56:19.784Z,80.31
2022-10-28T06:58:50.501Z,79.71
2022-10-28T07:01:18.097Z,79.21
2022-10-28T07:03:47.057Z,77.36
2022-10-28T07:06:15.383Z,76.50
2022-10-28T07:08:42.657Z,76.21
2022-10-28T07:11:09.404Z,76.02
2022-10-28T07:13:36.223Z,75.86
2022-10-28T07:16:04.038Z,75.46
2022-10-28T07:18:31.084Z,75.61
2022-10-28T07:21:00.792Z,75.14
2022-10-28T07:23:28.384Z,75.81
2022-10-28T07:25:57.101Z,75.73
2022-10-28T07:28:26.457Z,75.98
2022-10-28T07:30:54.218Z,76.29
2022-10-28T07:33:21.227Z,78.43
2022-10-28T07:35:48.245Z,75.65
2022-10-28T07:38:16.811Z,77.18
2022-10-28T07:40:44.101Z,76.15
2022-10-28T07:43:11.641Z,75.45
2022-10-28T07:45:39.521Z,75.43
2022-10-28T07:49:13.923Z,74.38
2022-10-28T07:51:37.539Z,72.29
2022-10-28T07:54:06.194Z,70.57
2022-10-28T07:56:33.065Z,70.31
2022-10-28T07:59:00.730Z,69.71
2022-10-28T08:01:27.808Z,70.11
2022-10-28T08:03:54.803Z,70.40
2022-10-28T08:06:22.120Z,70.36
2022-10-28T08:08:55.206Z,70.24
2022-10-28T08:11:24.305Z,70.72
2022-10-28T08:13:52.882Z,70.79
2022-10-28T08:16:20.273Z,71.25
2022-10-28T08:18:47.325Z,71.39
2022-10-28T08:21:15.701Z,71.65
2022-10-28T08:23:42.646Z,72.43
2022-10-28T08:26:09.485Z,72.12
2022-10-28T08:28:37.770Z,72.21
2022-10-28T08:31:09.705Z,73.33
2022-10-28T08:33:38.343Z,73.70
2022-10-28T08:36:06.569Z,73.73
2022-10-28T08:38:33.810Z,74.07
2022-10-28T08:41:19.275Z,74.46
2022-10-28T08:44:15.795Z,73.78
2022-10-28T08:47:05.609Z,73.64
2022-10-28T08:49:39.139Z,73.94
2022-10-28T08:52:24.066Z,74.20
2022-10-28T08:54:58.701Z,73.95
2022-10-28T08:57:38.088Z,73.97
2022-10-28T09:00:22.631Z,73.47
2022-10-28T09:03:06.860Z,73.07
2022-10-28T09:05:34.372Z,73.31
2022-10-28T09:08:02.803Z,73.52
2022-10-28T09:11:04.047Z,74.78
2022-10-28T09:13:50.887Z,74.21
2022-10-28T09:16:40.694Z,74.57
2022-10-28T09:19:24.353Z,76.24
2022-10-28T09:22:13.762Z,76.18
2022-10-28T09:24:50.142Z,76.57
2022-10-28T09:27:46.631Z,74.62
2022-10-28T09:30:34.877Z,74.60
2022-10-28T09:33:18.098Z,73.66
2022-10-28T09:35:48.169Z,67.47
2022-10-28T09:38:26.924Z,63.70
2022-10-28T09:41:02.669Z,61.89
2022-10-28T09:43:33.166Z,57.73
2022-10-28T09:46:07.815Z,57.42
2022-10-28T09:48:40.911Z,55.34
2022-10-28T09:51:25.803Z,54.73
2022-10-28T09:53:57.739Z,53.55
2022-10-28T09:56:26.444Z,53.13
2022-10-28T09:58:58.069Z,51.45
2022-10-28T10:01:25.466Z,50.46
2022-10-28T10:03:53.707Z,51.79
2022-10-28T10:06:28.985Z,52.97
2022-10-28T10:08:56.854Z,54.74
2022-10-28T10:11:36.353Z,56.07
2022-10-28T10:14:09.813Z,55.13
2022-10-28T10:16:42.424Z,53.39
2022-10-28T10:19:11.909Z,54.03
2022-10-28T10:21:45.581Z,54.96
2022-10-28T10:24:33.785Z,55.45
2022-10-28T10:27:12.495Z,56.88
2022-10-28T10:29:47.181Z,57.60
2022-10-28T10:32:19.566Z,58.63
2022-10-28T10:34:58.460Z,57.48
2022-10-28T10:37:25.347Z,55.70
2022-10-28T10:40:19.090Z,54.03
2022-10-28T10:42:57.456Z,52.88
2022-10-28T10:45:33.188Z,52.84
2022-10-28T10:48:15.189Z,52.29
2022-10-28T10:50:47.744Z,51.20
2022-10-28T10:53:22.641Z,52.73
2022-10-28T10:55:55.370Z,52.08
2022-10-28T10:58:26.430Z,52.94
2022-10-28T11:00:57.773Z,55.85
2022-10-28T11:03:30.481Z,57.50
2022-10-28T11:08:48.294Z,58.17
2022-10-28T11:11:20.982Z,58.86
2022-10-28T11:14:01.552Z,58.79
2022-10-28T11:16:28.314Z,51.85
2022-10-28T11:18:55.106Z,49.40
2022-10-28T11:21:49.207Z,53.26
2022-10-28T11:24:37.334Z,54.53
2022-10-28T11:27:20.633Z,53.96
2022-10-28T11:29:48.963Z,53.66
2022-10-28T11:32:45.301Z,54.22
2022-10-28T11:35:49.986Z,56.12
2022-10-28T11:38:58.786Z,55.91
2022-10-28T11:41:46.656Z,55.92
2022-10-28T11:44:35.073Z,58.53
2022-10-28T11:47:43.972Z,58.80
2022-10-28T11:50:36.632Z,56.56
2022-10-28T11:53:48.554Z,57.14
2022-10-28T11:56:39.411Z,56.47
2022-10-28T12:00:03.094Z,55.18
2022-10-28T12:02:58.742Z,54.72
2022-10-28T12:05:42.030Z,55.29
2022-10-28T12:08:56.050Z,55.26
2022-10-28T12:11:45.613Z,55.20
2022-10-28T12:14:27.692Z,54.34
2022-10-28T12:17:03.680Z,53.94
2022-10-28T12:19:35.920Z,52.77
2022-10-28T12:22:12.618Z,54.88
2022-10-28T12:24:45.716Z,53.66
2022-10-28T12:27:22.321Z,54.35
2022-10-28T12:29:56.776Z,55.66
2022-10-28T12:32:32.092Z,55.42
2022-10-28T12:35:06.223Z,55.02
2022-10-28T12:37:44.687Z,55.62
2022-10-28T12:40:20.532Z,54.94
2022-10-28T12:42:56.813Z,54.76
2022-10-28T12:45:25.066Z,53.69
2022-10-28T12:48:04.270Z,53.82
2022-10-28T12:50:42.276Z,53.62
2022-10-28T12:53:30.987Z,51.53
2022-10-28T12:56:01.710Z,51.34
2022-10-28T12:58:36.190Z,51.32
2022-10-28T13:01:10.125Z,52.71
2022-10-28T13:03:37.450Z,52.05
2022-10-28T13:06:45.755Z,51.96
2022-10-28T13:09:53.335Z,51.62
2022-10-28T13:13:09.228Z,51.07
2022-10-28T13:16:27.841Z,52.18
2022-10-28T13:19:29.129Z,51.50
2022-10-28T13:22:20.408Z,51.86
2022-10-28T13:25:00.304Z,50.68
2022-10-28T13:27:28.195Z,50.63
2022-10-28T13:30:00.081Z,51.27
2022-10-28T13:32:38.398Z,51.57
2022-10-28T13:35:21.653Z,53.03
2022-10-28T13:37:52.740Z,52.79
2022-10-28T13:41:09.459Z,53.71
2022-10-28T13:44:25.689Z,53.46
2022-10-28T13:47:30.456Z,53.17
2022-10-28T13:50:21.672Z,54.07
2022-10-28T13:53:38.208Z,53.53
2022-10-28T13:56:25.395Z,53.18
2022-10-28T13:58:55.757Z,52.89
2022-10-28T14:02:07.837Z,53.10
2022-10-28T14:04:54.646Z,52.02
2022-10-28T14:07:25.001Z,53.37
2022-10-28T14:09:58.093Z,51.31
2022-10-28T14:12:32.324Z,51.65
2022-10-28T14:15:16.620Z,52.00
2022-10-28T14:17:51.642Z,53.14
2022-10-28T14:20:29.999Z,52.97
2022-10-28T14:22:57.794Z,53.91
2022-10-28T14:26:02.014Z,53.46
2022-10-28T14:28:52.595Z,56.01
2022-10-28T14:31:52.721Z,54.96
2022-10-28T14:34:44.051Z,55.80
2022-10-28T14:37:48.573Z,56.51
2022-10-28T14:40:24.561Z,56.84
2022-10-28T14:43:15.849Z,57.39
2022-10-28T14:46:02.298Z,57.35
2022-10-28T14:48:47.576Z,58.29
2022-10-28T14:51:19.492Z,59.11
2022-10-28T14:53:50.566Z,59.70
2022-10-28T14:56:24.680Z,59.80
2022-10-28T14:58:54.946Z,59.65
2022-10-28T15:01:47.369Z,58.86
2022-10-28T15:04:20.624Z,58.90
2022-10-28T15:06:51.782Z,58.81
2022-10-28T15:09:24.802Z,58.54
2022-10-28T15:11:55.641Z,58.55
2022-10-28T15:14:31.926Z,58.48
2022-10-28T15:17:02.764Z,58.25
2022-10-28T15:19:34.626Z,58.01
2022-10-28T15:22:12.896Z,57.66
2022-10-28T15:24:44.604Z,55.95
2022-10-28T15:27:15.135Z,56.08
2022-10-28T15:29:42.899Z,55.59
2022-10-28T15:32:25.465Z,56.91
2022-10-28T15:34:52.893Z,57.09
2022-10-28T15:37:24.019Z,58.13
2022-10-28T15:40:12.353Z,58.00
2022-10-28T15:42:44.514Z,56.90
2022-10-28T15:45:22.818Z,57.17
2022-10-28T15:47:49.874Z,57.14
2022-10-28T15:50:31.550Z,57.01
2022-10-28T15:53:31.700Z,55.71
2022-10-28T15:56:25.091Z,55.30
2022-10-28T15:59:15.163Z,55.22
2022-10-28T16:01:42.253Z,55.15
2022-10-28T16:04:43.354Z,55.91
2022-10-28T16:07:11.068Z,55.99
2022-10-28T16:09:46.730Z,57.76
2022-10-28T16:12:19.977Z,57.14
2022-10-28T16:14:54.136Z,57.33
2022-10-28T16:17:25.173Z,58.25
2022-10-28T16:19:56.471Z,56.74
2022-10-28T16:22:27.154Z,60.04
2022-10-28T16:24:55.458Z,58.76
2022-10-28T16:27:26.550Z,59.17
2022-10-28T16:29:53.893Z,61.95
2022-10-28T16:32:27.737Z,64.04
2022-10-28T16:34:55.919Z,64.43
2022-10-28T16:37:25.166Z,65.75
2022-10-28T16:39:52.706Z,66.47
2022-10-28T16:42:21.776Z,66.53
2022-10-28T16:44:51.207Z,67.44
2022-10-28T16:47:21.821Z,67.32
2022-10-28T16:49:52.489Z,69.22
2022-10-28T16:52:26.609Z,69.03
2022-10-28T16:54:54.426Z,69.52
2022-10-28T16:59:52.383Z,67.93
2022-10-28T17:02:25.355Z,70.30
2022-10-28T17:04:52.209Z,70.60
2022-10-28T17:07:18.993Z,71.57
2022-10-28T17:09:46.057Z,71.45
2022-10-28T17:12:15.474Z,72.08
2022-10-28T17:14:43.122Z,71.45
2022-10-28T17:17:12.151Z,72.09
2022-10-28T17:19:41.214Z,72.89
2022-10-28T17:22:10.560Z,72.90
2022-10-28T17:24:38.289Z,69.31
2022-10-28T17:27:07.125Z,67.97
2022-10-28T17:29:34.186Z,67.65
2022-10-28T17:32:01.124Z,67.62
2022-10-28T17:34:29.242Z,68.48
2022-10-28T17:36:56.328Z,72.70
2022-10-28T17:39:26.117Z,73.19
2022-10-28T17:41:53.854Z,74.10
2022-10-28T17:44:20.766Z,74.24
2022-10-28T17:46:48.227Z,74.77
2022-10-28T17:49:15.783Z,75.12
2022-10-28T17:51:44.500Z,75.89
2022-10-28T17:54:11.553Z,76.35
2022-10-28T17:56:38.462Z,76.56
2022-10-28T17:59:05.575Z,76.90
2022-10-28T18:01:34.600Z,77.45
2022-10-28T18:04:02.522Z,77.53
2022-10-28T18:06:29.264Z,77.48
2022-10-28T18:08:57.330Z,77.48
2022-10-28T18:11:24.336Z,78.03
2022-10-28T18:13:51.282Z,78.38
2022-10-28T18:16:22.270Z,79.04
2022-10-28T18:18:49.084Z,79.18
2022-10-28T18:21:16.087Z,79.13
2022-10-28T18:23:42.878Z,78.96
2022-10-28T18:26:14.017Z,78.99
2022-10-28T18:28:43.632Z,78.76
2022-10-28T18:31:12.981Z,78.82
2022-10-28T18:33:41.340Z,79.20
2022-10-28T18:36:12.982Z,79.39
2022-10-28T18:38:39.984Z,79.74
2022-10-28T18:41:11.759Z,79.52
2022-10-28T18:43:38.767Z,79.76
2022-10-28T18:46:06.389Z,79.95
2022-10-28T18:48:33.321Z,79.92
2022-10-28T18:51:02.940Z,79.77
2022-10-28T18:53:29.697Z,79.87
2022-10-28T18:56:00.495Z,79.74
2022-10-28T18:58:28.992Z,80.03
2022-10-28T19:01:04.869Z,80.09
2022-10-28T19:03:31.944Z,80.42
2022-10-28T19:06:05.252Z,80.48
2022-10-28T19:08:32.696Z,80.46
2022-10-28T19:11:01.583Z,80.66
2022-10-28T19:13:33.207Z,80.57
2022-10-28T19:16:03.697Z,80.66
2022-10-28T19:18:31.111Z,80.79
2022-10-28T19:21:02.447Z,81.02
2022-10-28T19:23:29.250Z,81.24
2022-10-28T19:25:57.000Z,81.28
2022-10-28T19:28:24.086Z,81.25
2022-10-28T19:31:00.315Z,81.29
2022-10-28T19:33:28.618Z,81.35
2022-10-28T19:36:03.818Z,81.80
2022-10-28T19:38:32.924Z,81.84
2022-10-28T19:41:08.476Z,81.98
2022-10-28T19:43:36.531Z,82.64
2022-10-28T19:46:11.668Z,83.01
2022-10-28T19:48:44.414Z,82.71
2022-10-28T19:51:15.902Z,82.03
2022-10-28T19:53:47.781Z,82.12
2022-10-28T19:56:15.420Z,82.07
2022-10-28T19:58:42.240Z,82.49
2022-10-28T20:01:10.778Z,83.12
2022-10-28T20:03:39.346Z,83.28
2022-10-28T20:06:09.318Z,82.85
2022-10-28T20:08:39.005Z,82.73
2022-10-28T20:11:08.961Z,82.42
2022-10-28T20:13:36.757Z,82.50
2022-10-28T20:16:07.585Z,82.31
2022-10-28T20:18:36.323Z,82.94
2022-10-28T20:21:06.073Z,83.45
2022-10-28T20:23:34.145Z,83.69
2022-10-28T20:26:01.871Z,83.68
2022-10-28T20:28:28.772Z,84.03
2022-10-28T20:31:01.326Z,83.72
2022-10-28T20:33:29.628Z,83.79
2022-10-28T20:35:58.311Z,83.64
2022-10-28T20:38:26.008Z,83.30
2022-10-28T20:40:56.022Z,82.89
2022-10-28T20:43:26.313Z,83.12
2022-10-28T20:45:55.631Z,83.17
2022-10-28T20:48:23.190Z,83.21
2022-10-28T20:50:52.701Z,83.88
2022-10-28T20:53:22.000Z,84.12
2022-10-28T20:55:50.654Z,84.43
2022-10-28T20:58:17.762Z,84.97
2022-10-28T21:00:44.752Z,84.90
2022-10-28T21:03:11.711Z,84.45
2022-10-28T21:05:41.306Z,83.96
2022-10-28T21:08:09.400Z,83.76
2022-10-28T21:10:38.731Z,83.45
2022-10-28T21:13:06.940Z,84.00
2022-10-28T21:15:36.746Z,83.81
2022-10-28T21:18:05.047Z,83.40
2022-10-28T21:20:34.265Z,83.84
2022-10-28T21:23:01.617Z,83.85
2022-10-28T21:25:28.753Z,83.44
2022-10-28T21:27:58.324Z,83.14
2022-10-28T21:30:25.900Z,83.73
2022-10-28T21:32:53.692Z,82.96
2022-10-28T21:35:20.875Z,83.26
2022-10-28T21:37:48.192Z,82.69
2022-10-28T21:40:15.508Z,82.74
2022-10-28T21:42:47.670Z,82.87
2022-10-28T21:45:16.687Z,83.27
2022-10-28T21:47:43.650Z,82.60
2022-10-28T21:50:10.639Z,83.33
2022-10-28T21:52:37.537Z,84.13
2022-10-28T21:55:14.651Z,84.72
2022-10-28T21:57:47.918Z,83.90
2022-10-28T22:00:16.416Z,83.67
2022-10-28T22:02:43.305Z,83.16
2022-10-28T22:05:10.189Z,83.44
2022-10-28T22:07:37.228Z,83.01
2022-10-28T22:10:06.537Z,83.14
2022-10-28T22:12:33.368Z,82.37
2022-10-28T22:15:00.734Z,82.81
2022-10-28T22:17:28.924Z,82.58
2022-10-28T22:19:55.771Z,82.79
2022-10-28T22:22:22.753Z,84.20
2022-10-28T22:24:49.627Z,84.82
2022-10-28T22:27:16.764Z,84.32
2022-10-28T22:29:43.496Z,84.65
2022-10-28T22:32:10.577Z,84.80
2022-10-28T22:34:38.933Z,84.58
2022-10-28T22:37:05.830Z,84.94
2022-10-28T22:39:32.763Z,85.41
2022-10-28T22:41:59.979Z,84.82
2022-10-28T22:44:26.811Z,84.86
2022-10-28T22:46:54.124Z,84.65
2022-10-28T22:49:21.038Z,84.73
2022-10-28T22:51:49.742Z,85.10
2022-10-28T22:54:16.763Z,85.10
2022-10-28T22:56:43.810Z,85.21
2022-10-28T22:59:11.141Z,84.91
2022-10-28T23:01:39.238Z,85.33
2022-10-28T23:04:10.937Z,84.55
2022-10-28T23:06:38.213Z,84.23
2022-10-28T23:09:06.525Z,84.20
2022-10-28T23:11:33.447Z,83.94
2022-10-28T23:14:00.307Z,83.58
2022-10-28T23:16:27.232Z,84.03
2022-10-28T23:18:54.393Z,82.96
2022-10-28T23:21:23.684Z,83.71
2022-10-28T23:23:54.134Z,83.88
2022-10-28T23:26:24.500Z,84.23
2022-10-28T23:28:53.463Z,84.57
2022-10-28T23:31:21.964Z,83.79
2022-10-28T23:33:49.849Z,83.41
2022-10-28T23:36:17.203Z,83.50
2022-10-28T23:38:44.193Z,82.87
2022-10-28T23:41:14.293Z,83.67
2022-10-28T23:43:42.821Z,85.12
2022-10-28T23:46:10.517Z,85.76
2022-10-28T23:48:37.586Z,86.38
2022-10-28T23:51:04.868Z,86.99
2022-10-28T23:53:31.750Z,86.65
2022-10-28T23:55:58.983Z,86.28
2022-10-28T23:58:26.128Z,85.60
